Time;durP1;ratioP1;P1;durP2;ratioP2;P2;SDS_P1;SDS_P2;PMS_P1;PMS_P2;Temp;Humidity;BMP_temperature;BMP_pressure;BME280_temperature;BME280_humidity;BME280_pressure;Samples;Min_cycle;Max_cycle;Signal;HPM_P1;HPM_P2
2021/11/09 00:01:40;;;;;;;14.95;9.20;;;;;;;;;;5133614;27;20447;-66
2021/11/09 00:06:40;;;;;;;17.55;10.07;;;;;;;;;;5131469;27;20860;-66
2021/11/09 00:08:54;;;;;;;17.65;10.25;;;;;;;;;;5102504;28;20042;-66
2021/11/09 00:11:49;;;;;;;16.70;10.30;;;;;;;;;;5111404;27;20458;-69
2021/11/09 00:14:16;;;;;;;17.70;10.80;;;;;;;;;;5109769;28;20023;-68
2021/11/09 00:17:28;;;;;;;18.98;11.90;;;;;;;;;;5111576;27;20393;-65
2021/11/09 00:21:52;;;;;;;19.17;10.93;;;;;;;;;;5111688;27;20384;-66
2021/11/09 00:24:19;;;;;;;18.98;9.85;;;;;;;;;;5111306;28;20032;-66
2021/11/09 00:26:46;;;;;;;16.10;10.13;;;;;;;;;;5110768;28;20043;-66
2021/11/09 00:29:13;;;;;;;19.25;10.38;;;;;;;;;;5111135;28;20028;-67
2021/11/09 00:31:39;;;;;;;15.77;9.48;;;;;;;;;;5111177;28;20024;-69
2021/11/09 00:34:05;;;;;;;16.30;10.52;;;;;;;;;;5110868;28;20020;-68
2021/11/09 00:39:42;;;;;;;17.85;9.60;;;;;;;;;;5111332;27;20937;-68
2021/11/09 00:43:56;;;;;;;17.40;10.88;;;;;;;;;;5111470;27;20788;-68
2021/11/09 00:46:22;;;;;;;19.17;10.25;;;;;;;;;;5111243;28;20383;-68
2021/11/09 00:52:04;;;;;;;17.00;10.07;;;;;;;;;;5132064;27;20104;-66
2021/11/09 00:57:45;;;;;;;18.88;10.45;;;;;;;;;;5111927;27;20454;-65
2021/11/09 01:00:14;;;;;;;15.02;10.30;;;;;;;;;;5111112;28;20537;-68
2021/11/09 01:02:41;;;;;;;18.95;10.57;;;;;;;;;;5110825;28;20023;-68
2021/11/09 01:05:33;;;;;;;16.55;10.40;;;;;;;;;;5111370;27;20458;-68
2021/11/09 01:09:14;;;;;;;17.17;9.77;;;;;;;;;;5110934;27;20384;-66
2021/11/09 01:11:40;;;;;;;18.48;10.68;;;;;;;;;;5111713;28;20429;-68
2021/11/09 01:14:24;;;;;;;15.73;9.52;;;;;;;;;;5111334;27;20454;-67
2021/11/09 01:19:48;;;;;;;14.85;9.20;;;;;;;;;;5111529;27;20726;-68
2021/11/09 01:24:17;;;;;;;16.08;9.25;;;;;;;;;;5111025;27;20393;-68
2021/11/09 01:26:45;;;;;;;16.80;9.70;;;;;;;;;;5111256;28;20043;-68
2021/11/09 01:29:12;;;;;;;14.80;8.80;;;;;;;;;;5110877;28;20058;-67
2021/11/09 01:31:38;;;;;;;13.88;8.52;;;;;;;;;;5111118;28;20499;-67
2021/11/09 01:34:05;;;;;;;14.98;9.20;;;;;;;;;;5110913;28;20422;-68
2021/11/09 01:36:31;;;;;;;17.95;9.00;;;;;;;;;;5110675;28;20907;-68
2021/11/09 01:38:58;;;;;;;14.60;9.05;;;;;;;;;;5111060;28;20020;-68
2021/11/09 01:41:25;;;;;;;17.02;10.00;;;;;;;;;;5110798;28;20039;-68
2021/11/09 01:43:52;;;;;;;17.60;9.52;;;;;;;;;;5110602;28;20112;-68
2021/11/09 01:46:19;;;;;;;13.93;8.07;;;;;;;;;;5109526;28;20024;-67
2021/11/09 01:48:45;;;;;;;15.65;8.65;;;;;;;;;;5109489;28;20032;-68
2021/11/09 01:51:13;;;;;;;15.10;8.80;;;;;;;;;;5110351;28;20176;-68
2021/11/09 01:53:40;;;;;;;13.20;8.00;;;;;;;;;;5110668;28;20020;-68
2021/11/09 01:56:08;;;;;;;13.40;7.63;;;;;;;;;;5110628;28;20024;-68
2021/11/09 01:58:35;;;;;;;13.27;8.50;;;;;;;;;;5110163;28;20024;-68
2021/11/09 02:01:04;;;;;;;12.68;7.85;;;;;;;;;;5110598;28;20092;-68
2021/11/09 02:03:31;;;;;;;14.10;7.85;;;;;;;;;;5110417;28;20040;-68
2021/11/09 02:05:57;;;;;;;14.07;7.72;;;;;;;;;;5108620;28;20020;-68
2021/11/09 02:08:24;;;;;;;14.18;8.30;;;;;;;;;;5110181;28;20441;-68
2021/11/09 02:10:51;;;;;;;14.82;8.25;;;;;;;;;;5110540;28;20438;-68
2021/11/09 02:13:18;;;;;;;14.27;8.52;;;;;;;;;;5109891;28;20027;-68
2021/11/09 02:15:44;;;;;;;13.48;8.32;;;;;;;;;;5110390;28;20024;-69
2021/11/09 02:18:12;;;;;;;14.02;8.52;;;;;;;;;;5110404;28;20026;-66
2021/11/09 02:20:39;;;;;;;13.93;8.63;;;;;;;;;;5108851;28;20379;-65
2021/11/09 02:23:06;;;;;;;13.23;7.32;;;;;;;;;;5109655;28;20487;-68
2021/11/09 02:25:34;;;;;;;15.88;7.82;;;;;;;;;;5109071;28;20016;-68
2021/11/09 02:28:01;;;;;;;13.85;7.50;;;;;;;;;;5110061;28;20045;-65
2021/11/09 02:30:28;;;;;;;16.95;8.60;;;;;;;;;;5110180;28;20145;-67
2021/11/09 02:32:55;;;;;;;14.73;8.70;;;;;;;;;;5109784;28;20493;-68
2021/11/09 02:35:22;;;;;;;14.30;8.32;;;;;;;;;;5097815;28;20020;-68
2021/11/09 02:37:50;;;;;;;14.85;8.63;;;;;;;;;;5096615;28;20024;-68
2021/11/09 02:40:16;;;;;;;14.40;8.50;;;;;;;;;;5096017;28;20105;-68
2021/11/09 02:42:46;;;;;;;12.73;7.80;;;;;;;;;;5096409;28;20131;-68
2021/11/09 02:45:16;;;;;;;13.57;7.60;;;;;;;;;;5096258;28;20023;-68
2021/11/09 02:47:44;;;;;;;15.18;7.35;;;;;;;;;;5095768;28;20107;-68
2021/11/09 02:50:12;;;;;;;11.68;7.03;;;;;;;;;;5096163;28;20043;-65
2021/11/09 02:52:47;;;;;;;13.13;7.60;;;;;;;;;;5094634;28;20099;-65
2021/11/09 02:55:13;;;;;;;12.98;7.15;;;;;;;;;;5095979;28;20028;-65
2021/11/09 02:57:57;;;;;;;14.95;8.43;;;;;;;;;;5096033;28;20013;-68
2021/11/09 03:00:27;;;;;;;;;;;;;;;;;;5095109;28;20028;-68
2021/11/09 03:03:17;;;;;;;11.82;7.35;;;;;;;;;;5095355;28;19908;-65
2021/11/09 03:06:46;;;;;;;14.45;7.57;;;;;;;;;;5095741;28;20118;-68
2021/11/09 03:08:43;;;;;;;10.07;6.07;;;;;;;;;;5090473;28;20426;-68
2021/11/09 03:11:10;;;;;;;12.30;6.50;;;;;;;;;;5095797;28;20119;-68
2021/11/09 03:13:37;;;;;;;10.75;6.72;;;;;;;;;;5095858;28;20050;-68
2021/11/09 03:16:10;;;;;;;13.95;7.70;;;;;;;;;;5095248;28;20023;-68
2021/11/09 03:18:44;;;;;;;14.68;8.48;;;;;;;;;;5095713;28;20069;-68
2021/11/09 03:40:28;;;;;;;12.13;7.20;;;;;;;;;;5095492;28;20076;-67
2021/11/09 03:45:40;;;;;;;11.88;6.88;;;;;;;;;;5094197;28;20103;-68
2021/11/09 03:48:13;;;;;;;15.77;8.45;;;;;;;;;;5095107;28;20073;-68
2021/11/09 03:50:40;;;;;;;11.88;7.82;;;;;;;;;;5094734;28;20020;-68
2021/11/09 03:53:12;;;;;;;13.45;7.53;;;;;;;;;;5095243;28;20446;-68
2021/11/09 03:58:17;;;;;;;10.82;6.93;;;;;;;;;;5094444;28;20031;-68
2021/11/09 04:01:08;;;;;;;11.65;7.07;;;;;;;;;;5095413;28;20016;-68
2021/11/09 04:06:28;;;;;;;12.38;7.90;;;;;;;;;;5094685;28;20020;-67
2021/11/09 04:16:37;;;;;;;12.55;7.40;;;;;;;;;;5094441;28;20028;-67
2021/11/09 04:19:45;;;;;;;12.77;7.53;;;;;;;;;;5094302;28;20020;-68
2021/11/09 04:22:55;;;;;;;14.35;7.40;;;;;;;;;;5092781;28;20036;-67
2021/11/09 04:45:02;;;;;;;12.48;7.63;;;;;;;;;;5093890;28;20115;-67
2021/11/09 05:10:33;;;;;;;16.92;9.18;;;;;;;;;;5084709;28;20404;-66
2021/11/09 05:13:00;;;;;;;12.88;7.88;;;;;;;;;;5093865;28;20020;-67
2021/11/09 05:15:27;;;;;;;15.95;8.80;;;;;;;;;;5092103;28;20108;-67
2021/11/09 05:17:53;;;;;;;19.88;9.43;;;;;;;;;;5093562;28;20361;-67
2021/11/09 05:20:19;;;;;;;15.02;8.68;;;;;;;;;;5093690;28;20024;-67
2021/11/09 05:22:46;;;;;;;15.43;8.18;;;;;;;;;;5092816;28;20491;-69
2021/11/09 05:25:12;;;;;;;16.73;9.13;;;;;;;;;;5093508;28;20035;-68
2021/11/09 05:27:39;;;;;;;15.45;8.73;;;;;;;;;;5093444;28;20026;-68
2021/11/09 05:30:05;;;;;;;16.25;9.65;;;;;;;;;;5092983;28;20036;-69
2021/11/09 05:32:32;;;;;;;15.43;9.65;;;;;;;;;;5093543;28;20077;-68
2021/11/09 05:34:58;;;;;;;13.80;8.13;;;;;;;;;;5093324;28;20196;-68
2021/11/09 05:37:30;;;;;;;15.55;9.23;;;;;;;;;;5093071;28;20426;-69
2021/11/09 05:39:59;;;;;;;12.23;7.43;;;;;;;;;;5092116;28;20387;-68
2021/11/09 05:42:25;;;;;;;17.30;9.00;;;;;;;;;;5093450;28;20456;-69
2021/11/09 05:44:52;;;;;;;14.15;8.85;;;;;;;;;;5093118;28;20070;-67
2021/11/09 05:47:19;;;;;;;15.45;8.73;;;;;;;;;;5093659;28;20027;-69
2021/11/09 05:49:45;;;;;;;20.73;8.63;;;;;;;;;;5093054;28;20029;-68
2021/11/09 05:52:11;;;;;;;13.93;8.27;;;;;;;;;;5093282;28;20024;-66
2021/11/09 05:54:38;;;;;;;14.00;8.25;;;;;;;;;;5093270;28;20024;-66
2021/11/09 05:57:04;;;;;;;15.73;7.75;;;;;;;;;;5093365;28;20391;-68
2021/11/09 05:59:30;;;;;;;14.65;8.15;;;;;;;;;;5093131;28;20020;-66
2021/11/09 06:01:57;;;;;;;12.38;7.68;;;;;;;;;;5093233;28;20032;-66
2021/11/09 06:04:25;;;;;;;14.90;8.18;;;;;;;;;;5093557;28;20036;-66
2021/11/09 06:06:51;;;;;;;16.75;10.68;;;;;;;;;;5093137;28;20020;-69
2021/11/09 06:09:17;;;;;;;20.27;10.88;;;;;;;;;;5092777;28;20028;-68
2021/11/09 06:11:43;;;;;;;14.80;8.90;;;;;;;;;;5096411;28;20031;-67
2021/11/09 06:14:09;;;;;;;13.88;8.48;;;;;;;;;;5096693;28;20016;-66
2021/11/09 06:16:36;;;;;;;14.05;8.20;;;;;;;;;;5096507;28;20035;-66
2021/11/09 06:19:03;;;;;;;13.48;7.25;;;;;;;;;;5096206;28;20096;-65
2021/11/09 06:21:29;;;;;;;16.60;8.77;;;;;;;;;;5096502;28;20024;-65
2021/11/09 06:23:56;;;;;;;14.07;8.57;;;;;;;;;;5096153;28;20131;-66
2021/11/09 06:26:23;;;;;;;16.60;9.35;;;;;;;;;;5090712;28;20017;-65
2021/11/09 06:28:51;;;;;;;17.95;9.63;;;;;;;;;;5093029;28;20420;-66
2021/11/09 06:31:17;;;;;;;17.92;9.55;;;;;;;;;;5092248;28;20024;-65
2021/11/09 06:33:43;;;;;;;15.18;7.88;;;;;;;;;;5094668;28;20032;-66
2021/11/09 06:36:09;;;;;;;18.17;8.70;;;;;;;;;;5093928;28;20103;-66
2021/11/09 06:38:36;;;;;;;14.68;8.65;;;;;;;;;;5095469;28;20028;-67
2021/11/09 06:41:02;;;;;;;11.85;7.65;;;;;;;;;;5093974;28;20103;-67
2021/11/09 06:45:22;;;;;;;13.82;8.82;;;;;;;;;;5104744;27;20793;-67
2021/11/09 06:47:51;;;;;;;13.05;7.32;;;;;;;;;;5112041;28;20032;-66
2021/11/09 06:50:54;;;;;;;12.52;7.57;;;;;;;;;;5109278;27;20426;-66
2021/11/09 06:53:20;;;;;;;11.60;7.22;;;;;;;;;;5106961;28;20570;-68
2021/11/09 06:55:47;;;;;;;13.50;8.32;;;;;;;;;;5126777;28;20023;-66
2021/11/09 07:01:21;;;;;;;12.00;7.10;;;;;;;;;;5110621;27;20399;-66
2021/11/09 07:03:48;;;;;;;18.73;7.85;;;;;;;;;;5105018;28;20051;-66
2021/11/09 07:06:14;;;;;;;15.10;8.32;;;;;;;;;;5108362;28;20042;-69
2021/11/09 07:10:38;;;;;;;14.00;7.00;;;;;;;;;;5108274;27;20451;-69
2021/11/09 07:13:04;;;;;;;13.82;6.93;;;;;;;;;;5122144;28;20035;-69
2021/11/09 07:15:31;;;;;;;10.43;5.43;;;;;;;;;;5104558;28;20036;-70
2021/11/09 07:17:57;;;;;;;10.68;5.68;;;;;;;;;;5105113;28;20020;-69
2021/11/09 07:20:24;;;;;;;15.70;7.95;;;;;;;;;;5086711;28;20605;-70
2021/11/09 07:23:29;;;;;;;10.43;5.57;;;;;;;;;;5108586;27;20454;-70
2021/11/09 07:25:56;;;;;;;12.25;5.88;;;;;;;;;;5109137;28;20039;-70
2021/11/09 07:28:22;;;;;;;16.35;9.38;;;;;;;;;;5107156;28;20121;-69
2021/11/09 07:31:01;;;;;;;13.73;7.47;;;;;;;;;;5107767;28;20026;-69
2021/11/09 07:34:14;;;;;;;15.25;7.10;;;;;;;;;;5105333;27;20466;-70
2021/11/09 07:36:40;;;;;;;14.63;7.00;;;;;;;;;;5104300;28;20025;-70
2021/11/09 07:39:07;;;;;;;12.88;7.22;;;;;;;;;;5108289;28;20032;-70
2021/11/09 07:44:18;;;;;;;17.92;8.75;;;;;;;;;;5068410;28;20425;-70
2021/11/09 07:46:44;;;;;;;13.93;8.18;;;;;;;;;;5069494;28;20047;-71
2021/11/09 07:49:10;;;;;;;12.57;8.10;;;;;;;;;;5069341;28;20053;-69
2021/11/09 07:51:37;;;;;;;13.48;7.30;;;;;;;;;;5068969;28;20027;-70
2021/11/09 07:55:19;;;;;;;12.52;6.85;;;;;;;;;;5110902;27;20393;-71
2021/11/09 07:57:49;;;;;;;10.30;5.95;;;;;;;;;;5107595;28;20024;-69
2021/11/09 08:00:34;;;;;;;10.50;6.30;;;;;;;;;;5105363;28;20034;-70
2021/11/09 08:03:06;;;;;;;12.15;5.95;;;;;;;;;;5114460;28;20398;-69
2021/11/09 08:05:38;;;;;;;12.20;7.13;;;;;;;;;;5128208;28;20012;-70
2021/11/09 08:08:09;;;;;;;15.25;6.85;;;;;;;;;;5127485;28;20020;-70
2021/11/09 08:10:37;;;;;;;13.52;6.78;;;;;;;;;;5112296;28;20020;-69
2021/11/09 08:13:04;;;;;;;10.75;6.47;;;;;;;;;;5107080;28;20062;-70
2021/11/09 08:15:31;;;;;;;13.02;6.93;;;;;;;;;;5108247;28;20059;-71
2021/11/09 08:17:57;;;;;;;13.35;7.80;;;;;;;;;;5106725;28;20058;-69
2021/11/09 08:22:25;;;;;;;11.57;6.82;;;;;;;;;;5108913;27;20896;-71
2021/11/09 08:26:41;;;;;;;14.07;6.18;;;;;;;;;;5124586;27;20333;-69
2021/11/09 08:29:07;;;;;;;11.13;6.68;;;;;;;;;;5105049;28;20062;-71
2021/11/09 08:35:07;;;;;;;20.33;8.55;;;;;;;;;;5151920;27;20313;-69
2021/11/09 08:38:26;;;;;;;12.90;7.90;;;;;;;;;;5110568;27;20400;-71
2021/11/09 08:42:58;;;;;;;15.27;8.23;;;;;;;;;;5110649;27;20119;-70
2021/11/09 08:47:58;;;;;;;12.93;7.45;;;;;;;;;;5105594;28;20411;-72
2021/11/09 08:50:26;;;;;;;13.77;7.95;;;;;;;;;;5111236;28;20016;-71
2021/11/09 08:52:55;;;;;;;11.07;6.53;;;;;;;;;;5110246;28;20108;-71
2021/11/09 08:56:26;;;;;;;15.43;6.55;;;;;;;;;;5110979;27;20803;-69
2021/11/09 09:04:21;;;;;;;9.25;5.30;;;;;;;;;;5150769;27;20031;-69
2021/11/09 09:08:36;;;;;;;11.60;5.95;;;;;;;;;;5120985;27;20497;-70
2021/11/09 09:11:04;;;;;;;11.77;6.50;;;;;;;;;;5131572;28;20031;-69
2021/11/09 09:13:30;;;;;;;11.38;5.43;;;;;;;;;;5129886;28;20024;-69
2021/11/09 09:15:56;;;;;;;13.27;6.78;;;;;;;;;;5129444;28;20495;-69
2021/11/09 09:18:23;;;;;;;11.18;5.75;;;;;;;;;;5131117;28;20464;-69
2021/11/09 09:20:56;;;;;;;15.10;6.13;;;;;;;;;;5129777;28;20165;-69
2021/11/09 09:23:27;;;;;;;11.50;6.10;;;;;;;;;;5110047;28;20102;-69
2021/11/09 09:33:14;;;;;;;11.52;5.90;;;;;;;;;;5110249;27;20414;-70
2021/11/09 09:53:43;;;;;;;14.10;6.38;;;;;;;;;;5111124;28;20077;-67
2021/11/09 09:56:17;;;;;;;11.00;7.07;;;;;;;;;;5109868;28;20111;-68
2021/11/09 09:58:43;;;;;;;16.75;5.63;;;;;;;;;;5106597;28;20057;-67
2021/11/09 10:01:09;;;;;;;11.23;5.88;;;;;;;;;;5085740;28;20047;-68
2021/11/09 10:03:37;;;;;;;12.27;7.03;;;;;;;;;;5087623;28;20024;-69
2021/11/09 10:08:37;;;;;;;11.57;6.75;;;;;;;;;;5109126;27;20396;-69
2021/11/09 10:11:04;;;;;;;10.35;5.97;;;;;;;;;;5108523;28;20106;-68
2021/11/09 10:13:38;;;;;;;14.30;8.23;;;;;;;;;;5110087;28;20024;-68
2021/11/09 10:17:46;;;;;;;12.00;6.50;;;;;;;;;;5109823;27;20458;-67
2021/11/09 10:21:05;;;;;;;11.38;6.15;;;;;;;;;;5111040;27;20389;-68
2021/11/09 10:23:50;;;;;;;11.25;5.68;;;;;;;;;;5110912;27;20771;-69
2021/11/09 10:26:18;;;;;;;11.38;5.15;;;;;;;;;;5110941;28;20058;-67
2021/11/09 10:29:08;;;;;;;10.43;4.78;;;;;;;;;;5110940;27;21005;-69
2021/11/09 10:31:34;;;;;;;;;;;;;;;;;;5111746;28;20050;-70
2021/11/09 10:34:00;;;;;;;14.73;6.65;;;;;;;;;;5118462;27;19903;-68
2021/11/09 10:39:33;;;;;;;12.68;6.28;;;;;;;;;;5110465;27;20113;-68
2021/11/09 10:43:04;;;;;;;12.63;6.50;;;;;;;;;;5110624;27;21060;-69
2021/11/09 10:45:35;;;;;;;10.20;5.80;;;;;;;;;;5090072;28;20032;-69
2021/11/09 10:48:14;;;;;;;8.80;5.78;;;;;;;;;;5150619;27;20810;-69
2021/11/09 10:50:44;;;;;;;10.55;5.95;;;;;;;;;;5131287;27;20043;-67
2021/11/09 11:06:20;;;;;;;9.98;5.90;;;;;;;;;;5110657;28;20024;-68
2021/11/09 11:08:48;;;;;;;8.95;5.30;;;;;;;;;;5110017;28;20024;-68
2021/11/09 11:11:15;;;;;;;21.92;9.10;;;;;;;;;;5110421;28;20058;-68
2021/11/09 11:13:41;;;;;;;9.80;5.70;;;;;;;;;;5109905;28;20365;-69
2021/11/09 11:17:58;;;;;;;10.98;6.68;;;;;;;;;;5128677;27;20357;-68
2021/11/09 11:20:24;;;;;;;10.07;5.65;;;;;;;;;;5107070;28;20023;-69
2021/11/09 11:23:49;;;;;;;14.15;7.82;;;;;;;;;;5110439;27;20729;-68
2021/11/09 11:26:16;;;;;;;16.08;8.85;;;;;;;;;;5109540;28;20024;-69
2021/11/09 11:28:58;;;;;;;13.73;6.45;;;;;;;;;;5109697;27;20466;-68
2021/11/09 11:33:32;;;;;;;21.35;9.57;;;;;;;;;;5120624;27;20482;-67
2021/11/09 11:35:58;;;;;;;14.88;7.50;;;;;;;;;;5110226;28;20387;-67
2021/11/09 11:42:14;;;;;;;15.48;6.53;;;;;;;;;;5110215;27;20457;-67
2021/11/09 11:44:41;;;;;;;11.65;6.78;;;;;;;;;;5110699;28;20032;-67
2021/11/09 11:47:11;;;;;;;12.02;7.60;;;;;;;;;;5110221;28;20028;-68
2021/11/09 11:49:40;;;;;;;12.63;6.53;;;;;;;;;;5109499;28;20084;-68
2021/11/09 11:52:08;;;;;;;11.45;6.85;;;;;;;;;;5109112;28;20050;-68
2021/11/09 11:54:39;;;;;;;10.88;6.03;;;;;;;;;;5110665;28;20034;-68
2021/11/09 11:57:05;;;;;;;9.75;5.53;;;;;;;;;;5107119;28;20023;-67
2021/11/09 11:59:32;;;;;;;13.38;5.80;;;;;;;;;;5111857;28;20091;-67
2021/11/09 12:02:09;;;;;;;10.27;5.82;;;;;;;;;;5109804;28;20032;-68
2021/11/09 12:06:15;;;;;;;18.83;6.03;;;;;;;;;;5109480;27;20380;-69
2021/11/09 12:08:48;;;;;;;12.18;6.30;;;;;;;;;;5110884;28;20439;-69
2021/11/09 12:11:23;;;;;;;16.77;6.70;;;;;;;;;;5110736;28;20528;-69
2021/11/09 12:13:57;;;;;;;9.68;5.78;;;;;;;;;;5110743;28;20032;-69
2021/11/09 12:16:41;;;;;;;15.07;7.45;;;;;;;;;;5106631;28;20683;-69
2021/11/09 12:19:08;;;;;;;13.07;6.75;;;;;;;;;;5110493;28;20407;-69
2021/11/09 12:22:51;;;;;;;12.70;6.55;;;;;;;;;;5110989;27;20396;-69
2021/11/09 12:25:33;;;;;;;16.42;8.35;;;;;;;;;;5110642;27;20389;-68
2021/11/09 12:28:07;;;;;;;12.90;7.13;;;;;;;;;;5111024;28;20031;-69
2021/11/09 12:31:15;;;;;;;12.70;7.90;;;;;;;;;;5110945;27;20973;-69
2021/11/09 12:34:40;;;;;;;13.48;6.38;;;;;;;;;;5150729;27;20388;-68
2021/11/09 12:37:24;;;;;;;10.25;6.55;;;;;;;;;;5131308;28;20020;-69
2021/11/09 12:39:50;;;;;;;13.32;7.50;;;;;;;;;;5112533;28;20379;-69
2021/11/09 12:42:16;;;;;;;12.50;7.10;;;;;;;;;;5131349;28;20022;-67
2021/11/09 12:45:28;;;;;;;11.55;7.40;;;;;;;;;;5110835;27;20397;-69
2021/11/09 12:47:58;;;;;;;16.67;9.13;;;;;;;;;;5111224;28;20034;-69
2021/11/09 12:51:37;;;;;;;16.77;8.73;;;;;;;;;;5131127;27;20320;-67
2021/11/09 12:56:12;;;;;;;11.90;7.57;;;;;;;;;;5086945;28;20599;-69
2021/11/09 12:58:57;;;;;;;16.58;8.45;;;;;;;;;;5090845;28;20032;-69
2021/11/09 13:07:34;;;;;;;14.00;8.40;;;;;;;;;;5110774;27;20385;-69
2021/11/09 13:10:06;;;;;;;14.77;8.25;;;;;;;;;;5109828;28;20434;-69
2021/11/09 13:12:33;;;;;;;12.00;7.43;;;;;;;;;;5110858;28;20023;-68
2021/11/09 13:15:10;;;;;;;18.10;8.43;;;;;;;;;;5107324;28;20030;-68
2021/11/09 13:17:39;;;;;;;13.70;6.70;;;;;;;;;;5109995;28;20050;-68
2021/11/09 13:20:17;;;;;;;14.00;6.40;;;;;;;;;;5128231;28;20085;-69
2021/11/09 13:25:31;;;;;;;15.55;7.35;;;;;;;;;;5110764;27;20450;-67
2021/11/09 13:27:58;;;;;;;11.63;6.97;;;;;;;;;;5125148;28;20050;-68
2021/11/09 13:33:13;;;;;;;12.55;7.68;;;;;;;;;;5110921;27;20343;-69
2021/11/09 13:35:40;;;;;;;12.48;6.97;;;;;;;;;;5110534;28;20059;-69
2021/11/09 13:38:21;;;;;;;12.48;6.88;;;;;;;;;;5110647;27;20392;-70
2021/11/09 13:40:52;;;;;;;12.13;6.47;;;;;;;;;;5108918;28;20042;-70
2021/11/09 13:43:24;;;;;;;10.98;5.28;;;;;;;;;;5107718;28;20027;-69
2021/11/09 13:46:41;;;;;;;14.77;7.55;;;;;;;;;;5110140;27;20389;-68
2021/11/09 13:49:11;;;;;;;15.50;8.50;;;;;;;;;;5125806;28;20483;-68
2021/11/09 13:51:50;;;;;;;15.73;7.30;;;;;;;;;;5109647;28;20024;-68
2021/11/09 13:54:19;;;;;;;14.00;7.82;;;;;;;;;;5109973;28;20042;-68
2021/11/09 13:56:46;;;;;;;14.15;6.80;;;;;;;;;;5110087;28;20016;-69
2021/11/09 14:01:03;;;;;;;11.98;6.38;;;;;;;;;;5110912;27;20427;-69
2021/11/09 14:08:49;;;;;;;12.20;6.65;;;;;;;;;;5173161;27;20423;-69
2021/11/09 14:14:48;;;;;;;10.40;5.32;;;;;;;;;;5070441;28;20108;-69
2021/11/09 14:17:15;;;;;;;9.65;5.45;;;;;;;;;;5070223;28;20037;-69
2021/11/09 14:19:41;;;;;;;11.63;5.30;;;;;;;;;;5070519;28;20047;-69
2021/11/09 14:22:13;;;;;;;11.35;5.70;;;;;;;;;;5070395;28;20025;-69
2021/11/09 14:31:26;;;;;;;11.40;5.47;;;;;;;;;;5111330;27;20458;-69
2021/11/09 14:33:54;;;;;;;12.98;5.57;;;;;;;;;;5111436;28;20024;-68
2021/11/09 14:36:32;;;;;;;8.02;4.30;;;;;;;;;;5105916;28;20024;-69
2021/11/09 14:39:09;;;;;;;14.52;6.93;;;;;;;;;;5110831;28;20022;-69
2021/11/09 14:42:41;;;;;;;10.23;5.45;;;;;;;;;;5112131;27;20462;-69
2021/11/09 14:48:12;;;;;;;14.07;6.32;;;;;;;;;;5090862;28;20086;-69
2021/11/09 14:50:47;;;;;;;9.52;5.22;;;;;;;;;;5090743;28;20444;-68
2021/11/09 14:53:30;;;;;;;11.32;5.97;;;;;;;;;;5091183;27;20397;-69
2021/11/09 14:55:58;;;;;;;10.25;5.90;;;;;;;;;;5090864;28;20028;-68
2021/11/09 14:58:26;;;;;;;11.02;5.63;;;;;;;;;;5090469;28;20123;-68
2021/11/09 15:00:56;;;;;;;9.48;5.40;;;;;;;;;;5090874;28;20039;-68
2021/11/09 15:03:22;;;;;;;14.57;5.72;;;;;;;;;;5090612;28;20048;-69
2021/11/09 15:08:24;;;;;;;15.27;5.97;;;;;;;;;;5111197;27;20434;-68
2021/11/09 15:30:23;;;;;;;13.20;7.53;;;;;;;;;;5108777;28;20488;-68
2021/11/09 15:32:50;;;;;;;12.98;7.80;;;;;;;;;;5109743;28;20107;-68
2021/11/09 15:37:50;;;;;;;9.95;5.53;;;;;;;;;;5111023;28;20028;-68
2021/11/09 15:40:21;;;;;;;11.57;5.60;;;;;;;;;;5110970;28;20384;-68
2021/11/09 15:42:47;;;;;;;10.85;5.65;;;;;;;;;;5110945;28;20028;-68
2021/11/09 15:45:13;;;;;;;11.52;5.55;;;;;;;;;;5110837;28;20032;-68
2021/11/09 15:47:39;;;;;;;10.00;4.70;;;;;;;;;;5110094;28;20035;-69
2021/11/09 15:50:06;;;;;;;10.73;6.18;;;;;;;;;;5110444;28;20486;-69
2021/11/09 15:52:33;;;;;;;12.23;7.05;;;;;;;;;;5110409;28;20032;-69
2021/11/09 15:55:00;;;;;;;13.32;7.88;;;;;;;;;;5110118;28;20146;-69
2021/11/09 15:57:26;;;;;;;12.25;7.15;;;;;;;;;;5110150;28;20048;-68
2021/11/09 15:59:53;;;;;;;17.55;9.55;;;;;;;;;;5126066;28;20024;-69
2021/11/09 16:02:20;;;;;;;17.23;9.77;;;;;;;;;;5109790;28;20081;-69
2021/11/09 16:04:47;;;;;;;19.55;12.38;;;;;;;;;;5110255;28;20020;-69
2021/11/09 16:07:15;;;;;;;19.85;11.88;;;;;;;;;;5108486;28;20101;-68
2021/11/09 16:09:44;;;;;;;19.42;11.27;;;;;;;;;;5109764;28;20038;-68
2021/11/09 16:12:12;;;;;;;17.98;10.18;;;;;;;;;;5110091;28;20032;-68
2021/11/09 16:14:39;;;;;;;12.35;6.78;;;;;;;;;;5110101;28;20016;-68
2021/11/09 16:17:06;;;;;;;14.65;8.38;;;;;;;;;;5109580;28;20073;-68
2021/11/09 16:19:32;;;;;;;20.90;13.48;;;;;;;;;;5112090;28;20021;-68
2021/11/09 16:21:59;;;;;;;13.32;8.15;;;;;;;;;;5096324;28;20024;-68
2021/11/09 16:24:25;;;;;;;10.23;6.78;;;;;;;;;;5091303;28;20068;-68
2021/11/09 16:26:51;;;;;;;13.63;7.47;;;;;;;;;;5096103;28;20036;-68
2021/11/09 16:29:23;;;;;;;12.15;7.07;;;;;;;;;;5096019;28;20020;-68
2021/11/09 16:31:50;;;;;;;9.85;5.75;;;;;;;;;;5095770;28;20027;-68
2021/11/09 16:34:18;;;;;;;11.20;6.05;;;;;;;;;;5096072;28;20053;-69
2021/11/09 16:36:44;;;;;;;14.55;6.03;;;;;;;;;;5095549;28;20028;-68
2021/11/09 16:39:21;;;;;;;13.38;6.40;;;;;;;;;;5094733;28;20016;-68
2021/11/09 16:41:47;;;;;;;10.00;5.65;;;;;;;;;;5096216;28;20103;-69
2021/11/09 16:44:16;;;;;;;10.68;5.88;;;;;;;;;;5095477;28;20028;-68
2021/11/09 16:46:52;;;;;;;9.25;5.72;;;;;;;;;;5095679;28;20047;-67
2021/11/09 16:51:53;;;;;;;10.80;5.88;;;;;;;;;;5091576;28;20483;-69
2021/11/09 16:54:32;;;;;;;13.30;5.63;;;;;;;;;;5095517;28;20077;-68
2021/11/09 16:59:49;;;;;;;12.60;7.47;;;;;;;;;;5094815;28;20476;-68
2021/11/09 17:02:30;;;;;;;12.60;7.22;;;;;;;;;;5095115;28;20407;-68
2021/11/09 17:10:41;;;;;;;14.15;7.55;;;;;;;;;;5095226;28;20028;-68
2021/11/09 18:20:47;;;;;;;13.77;8.18;;;;;;;;;;5094369;28;20036;-69
2021/11/09 18:23:13;;;;;;;12.93;7.88;;;;;;;;;;5093543;28;20028;-69
2021/11/09 18:25:40;;;;;;;13.90;8.13;;;;;;;;;;5093914;28;20027;-68
2021/11/09 18:28:07;;;;;;;13.60;8.85;;;;;;;;;;5093790;28;20031;-68
2021/11/09 18:30:36;;;;;;;17.13;8.73;;;;;;;;;;5093477;28;20031;-69
2021/11/09 18:33:03;;;;;;;13.35;8.63;;;;;;;;;;5093721;28;20027;-68
2021/11/09 18:35:30;;;;;;;13.43;7.75;;;;;;;;;;5093593;28;20024;-68
2021/11/09 18:37:59;;;;;;;13.00;7.97;;;;;;;;;;5093341;28;20027;-68
2021/11/09 18:40:26;;;;;;;18.73;10.90;;;;;;;;;;5094030;28;20464;-69
2021/11/09 18:42:53;;;;;;;15.82;9.18;;;;;;;;;;5093590;28;20024;-69
2021/11/09 18:45:21;;;;;;;16.88;10.25;;;;;;;;;;5093364;28;20392;-70
2021/11/09 18:47:48;;;;;;;27.50;12.25;;;;;;;;;;5093716;28;20111;-69
2021/11/09 18:50:16;;;;;;;19.98;9.43;;;;;;;;;;5092076;28;20020;-69
2021/11/09 18:52:43;;;;;;;18.20;9.52;;;;;;;;;;5093701;28;20036;-69
2021/11/09 18:55:11;;;;;;;20.13;10.52;;;;;;;;;;5093618;28;20387;-68
2021/11/09 18:57:38;;;;;;;21.73;11.40;;;;;;;;;;5093297;28;20107;-68
2021/11/09 19:00:04;;;;;;;23.02;12.80;;;;;;;;;;5093652;28;20027;-68
2021/11/09 19:02:31;;;;;;;20.17;10.75;;;;;;;;;;5093473;28;20024;-68
2021/11/09 19:04:59;;;;;;;28.42;13.57;;;;;;;;;;5093161;28;20028;-68
2021/11/09 19:07:25;;;;;;;17.42;10.70;;;;;;;;;;5093215;28;20125;-68
2021/11/09 19:09:51;;;;;;;13.68;7.60;;;;;;;;;;5093492;28;20091;-68
2021/11/09 19:12:17;;;;;;;12.43;7.32;;;;;;;;;;5093376;28;20032;-69
2021/11/09 19:14:44;;;;;;;15.20;8.48;;;;;;;;;;5093339;28;20024;-68
2021/11/09 19:17:10;;;;;;;13.50;7.70;;;;;;;;;;5093470;28;20537;-68
2021/11/09 19:19:36;;;;;;;14.73;8.43;;;;;;;;;;5093173;28;20483;-68
2021/11/09 19:22:03;;;;;;;20.55;10.50;;;;;;;;;;5093404;28;20028;-68
2021/11/09 19:24:29;;;;;;;18.92;10.27;;;;;;;;;;5093385;28;20024;-69
2021/11/09 19:26:55;;;;;;;14.85;9.48;;;;;;;;;;5092923;28;20028;-69
2021/11/09 19:29:22;;;;;;;15.27;9.98;;;;;;;;;;5093296;28;20020;-69
2021/11/09 19:31:49;;;;;;;14.20;9.23;;;;;;;;;;5093285;28;20027;-68
2021/11/09 19:34:15;;;;;;;12.95;7.45;;;;;;;;;;5092897;28;20052;-68
2021/11/09 19:36:42;;;;;;;17.30;10.23;;;;;;;;;;5093215;28;20035;-68
2021/11/09 19:39:09;;;;;;;11.52;7.93;;;;;;;;;;5093250;28;20043;-68
2021/11/09 19:41:35;;;;;;;10.30;6.80;;;;;;;;;;5092814;28;20080;-68
2021/11/09 19:44:05;;;;;;;12.68;7.65;;;;;;;;;;5093313;28;20022;-69
2021/11/09 19:46:37;;;;;;;13.27;8.38;;;;;;;;;;5092881;28;20028;-69
2021/11/09 19:49:06;;;;;;;12.45;7.78;;;;;;;;;;5093365;28;20482;-67
2021/11/09 19:51:34;;;;;;;12.27;7.60;;;;;;;;;;5093157;28;20119;-68
2021/11/09 19:54:00;;;;;;;13.85;8.32;;;;;;;;;;5094807;28;20047;-67
2021/11/09 19:56:27;;;;;;;15.00;7.43;;;;;;;;;;5096914;28;20035;-67
2021/11/09 19:58:54;;;;;;;13.57;8.27;;;;;;;;;;5096793;28;20095;-67
2021/11/09 20:01:21;;;;;;;10.82;6.32;;;;;;;;;;5096490;28;20020;-67
2021/11/09 20:03:47;;;;;;;13.68;7.00;;;;;;;;;;5096654;28;20039;-68
2021/11/09 20:06:17;;;;;;;11.18;7.88;;;;;;;;;;5096319;28;20039;-68
2021/11/09 20:08:45;;;;;;;15.90;8.23;;;;;;;;;;5096292;28;20032;-68
2021/11/09 20:11:13;;;;;;;16.02;7.30;;;;;;;;;;5096560;28;20020;-68
2021/11/09 20:13:43;;;;;;;10.85;8.07;;;;;;;;;;5096648;28;20023;-68
2021/11/09 20:16:12;;;;;;;12.65;7.95;;;;;;;;;;5096148;28;20547;-67
2021/11/09 20:18:39;;;;;;;12.13;8.32;;;;;;;;;;5096431;28;20028;-68